sensor_id;sensor_type;location;lat;lon;timestamp;P1;durP1;ratioP1;P2;durP2;ratioP2
4353;SDS011;11018;51.258;6.806;2024-02-28T00:01:24;93.37;;;38.57;;
4353;SDS011;11018;51.258;6.806;2024-02-28T00:03:51;101.55;;;39.63;;
4353;SDS011;11018;51.258;6.806;2024-02-28T00:06:17;94.90;;;40.20;;
4353;SDS011;11018;51.258;6.806;2024-02-28T00:08:42;89.70;;;37.73;;
4353;SDS011;11018;51.258;6.806;2024-02-28T00:11:08;99.37;;;39.37;;
4353;SDS011;11018;51.258;6.806;2024-02-28T00:13:33;97.23;;;38.53;;
4353;SDS011;11018;51.258;6.806;2024-02-28T00:15:59;94.40;;;38.53;;
4353;SDS011;11018;51.258;6.806;2024-02-28T00:18:24;85.20;;;37.23;;
4353;SDS011;11018;51.258;6.806;2024-02-28T00:20:50;91.33;;;39.43;;
4353;SDS011;11018;51.258;6.806;2024-02-28T00:23:15;88.30;;;38.03;;
4353;SDS011;11018;51.258;6.806;2024-02-28T00:25:41;96.93;;;38.25;;
4353;SDS011;11018;51.258;6.806;2024-02-28T00:28:07;97.13;;;38.90;;
4353;SDS011;11018;51.258;6.806;2024-02-28T00:30:32;93.13;;;38.75;;
4353;SDS011;11018;51.258;6.806;2024-02-28T00:32:58;97.70;;;38.05;;
4353;SDS011;11018;51.258;6.806;2024-02-28T00:35:24;100.93;;;36.80;;
4353;SDS011;11018;51.258;6.806;2024-02-28T00:37:50;89.87;;;37.50;;
4353;SDS011;11018;51.258;6.806;2024-02-28T00:40:15;90.50;;;38.60;;
4353;SDS011;11018;51.258;6.806;2024-02-28T00:42:41;87.57;;;35.33;;
4353;SDS011;11018;51.258;6.806;2024-02-28T00:45:08;87.90;;;36.30;;
4353;SDS011;11018;51.258;6.806;2024-02-28T00:47:34;87.75;;;35.25;;
4353;SDS011;11018;51.258;6.806;2024-02-28T00:50:00;83.90;;;34.17;;
4353;SDS011;11018;51.258;6.806;2024-02-28T00:52:28;82.80;;;33.00;;
4353;SDS011;11018;51.258;6.806;2024-02-28T00:54:54;89.50;;;36.50;;
4353;SDS011;11018;51.258;6.806;2024-02-28T00:57:19;79.47;;;35.23;;
4353;SDS011;11018;51.258;6.806;2024-02-28T00:59:45;82.55;;;34.13;;
4353;SDS011;11018;51.258;6.806;2024-02-28T01:02:10;86.15;;;34.63;;
4353;SDS011;11018;51.258;6.806;2024-02-28T01:04:36;83.57;;;34.28;;
4353;SDS011;11018;51.258;6.806;2024-02-28T01:07:02;78.38;;;32.72;;
4353;SDS011;11018;51.258;6.806;2024-02-28T01:09:28;83.53;;;33.85;;
4353;SDS011;11018;51.258;6.806;2024-02-28T01:11:53;81.90;;;33.13;;
4353;SDS011;11018;51.258;6.806;2024-02-28T01:14:19;89.93;;;34.60;;
4353;SDS011;11018;51.258;6.806;2024-02-28T01:16:45;85.80;;;34.23;;
4353;SDS011;11018;51.258;6.806;2024-02-28T01:19:10;85.33;;;33.73;;
4353;SDS011;11018;51.258;6.806;2024-02-28T01:21:36;92.10;;;34.60;;
4353;SDS011;11018;51.258;6.806;2024-02-28T01:24:01;95.90;;;35.27;;
4353;SDS011;11018;51.258;6.806;2024-02-28T01:26:27;90.28;;;35.42;;
4353;SDS011;11018;51.258;6.806;2024-02-28T01:28:53;96.85;;;39.28;;
4353;SDS011;11018;51.258;6.806;2024-02-28T01:31:18;97.50;;;36.57;;
4353;SDS011;11018;51.258;6.806;2024-02-28T01:33:44;91.57;;;36.60;;
4353;SDS011;11018;51.258;6.806;2024-02-28T01:36:10;93.77;;;34.00;;
4353;SDS011;11018;51.258;6.806;2024-02-28T01:38:36;84.82;;;33.65;;
4353;SDS011;11018;51.258;6.806;2024-02-28T01:43:49;81.70;;;33.65;;
4353;SDS011;11018;51.258;6.806;2024-02-28T01:46:20;88.77;;;34.87;;
4353;SDS011;11018;51.258;6.806;2024-02-28T01:48:50;87.43;;;33.30;;
4353;SDS011;11018;51.258;6.806;2024-02-28T01:51:17;83.68;;;34.85;;
4353;SDS011;11018;51.258;6.806;2024-02-28T01:53:44;85.60;;;34.08;;
4353;SDS011;11018;51.258;6.806;2024-02-28T01:56:10;75.03;;;32.50;;
4353;SDS011;11018;51.258;6.806;2024-02-28T01:58:37;85.25;;;34.30;;
4353;SDS011;11018;51.258;6.806;2024-02-28T02:01:02;83.00;;;32.67;;
4353;SDS011;11018;51.258;6.806;2024-02-28T02:03:28;79.43;;;32.15;;
4353;SDS011;11018;51.258;6.806;2024-02-28T02:05:54;89.03;;;35.05;;
4353;SDS011;11018;51.258;6.806;2024-02-28T02:08:19;89.38;;;35.47;;
4353;SDS011;11018;51.258;6.806;2024-02-28T02:10:45;90.13;;;34.08;;
4353;SDS011;11018;51.258;6.806;2024-02-28T02:13:11;99.43;;;36.40;;
4353;SDS011;11018;51.258;6.806;2024-02-28T02:15:37;88.95;;;35.10;;
4353;SDS011;11018;51.258;6.806;2024-02-28T02:18:03;94.10;;;36.63;;
4353;SDS011;11018;51.258;6.806;2024-02-28T02:20:30;91.55;;;36.15;;
4353;SDS011;11018;51.258;6.806;2024-02-28T02:22:58;91.90;;;36.47;;
4353;SDS011;11018;51.258;6.806;2024-02-28T02:25:24;97.37;;;35.00;;
4353;SDS011;11018;51.258;6.806;2024-02-28T02:27:50;95.25;;;35.50;;
4353;SDS011;11018;51.258;6.806;2024-02-28T02:30:16;98.70;;;35.60;;
4353;SDS011;11018;51.258;6.806;2024-02-28T02:32:41;93.45;;;37.30;;
4353;SDS011;11018;51.258;6.806;2024-02-28T02:35:07;99.00;;;37.58;;
4353;SDS011;11018;51.258;6.806;2024-02-28T02:37:32;101.20;;;38.75;;
4353;SDS011;11018;51.258;6.806;2024-02-28T02:39:59;96.27;;;37.50;;
4353;SDS011;11018;51.258;6.806;2024-02-28T02:42:24;97.47;;;37.97;;
4353;SDS011;11018;51.258;6.806;2024-02-28T02:44:50;104.72;;;38.35;;
4353;SDS011;11018;51.258;6.806;2024-02-28T02:47:15;110.47;;;40.05;;
4353;SDS011;11018;51.258;6.806;2024-02-28T02:49:41;107.78;;;39.22;;
4353;SDS011;11018;51.258;6.806;2024-02-28T02:52:06;104.88;;;40.10;;
4353;SDS011;11018;51.258;6.806;2024-02-28T02:54:32;108.47;;;41.10;;
4353;SDS011;11018;51.258;6.806;2024-02-28T02:56:57;109.07;;;41.05;;
4353;SDS011;11018;51.258;6.806;2024-02-28T02:59:23;111.53;;;41.20;;
4353;SDS011;11018;51.258;6.806;2024-02-28T03:01:49;111.47;;;41.53;;
4353;SDS011;11018;51.258;6.806;2024-02-28T03:04:15;111.20;;;41.17;;
4353;SDS011;11018;51.258;6.806;2024-02-28T03:06:40;109.88;;;40.65;;
4353;SDS011;11018;51.258;6.806;2024-02-28T03:09:06;102.60;;;40.10;;
4353;SDS011;11018;51.258;6.806;2024-02-28T03:11:32;93.28;;;38.20;;
4353;SDS011;11018;51.258;6.806;2024-02-28T03:14:00;98.28;;;38.03;;
4353;SDS011;11018;51.258;6.806;2024-02-28T03:16:25;91.57;;;37.00;;
4353;SDS011;11018;51.258;6.806;2024-02-28T03:18:51;93.25;;;37.50;;
4353;SDS011;11018;51.258;6.806;2024-02-28T03:21:17;90.88;;;37.13;;
4353;SDS011;11018;51.258;6.806;2024-02-28T03:23:42;99.00;;;38.10;;
4353;SDS011;11018;51.258;6.806;2024-02-28T03:26:08;94.00;;;37.65;;
4353;SDS011;11018;51.258;6.806;2024-02-28T03:28:36;94.78;;;37.45;;
4353;SDS011;11018;51.258;6.806;2024-02-28T03:31:02;89.82;;;34.97;;
4353;SDS011;11018;51.258;6.806;2024-02-28T03:33:27;101.38;;;38.10;;
4353;SDS011;11018;51.258;6.806;2024-02-28T03:35:54;92.88;;;35.90;;
4353;SDS011;11018;51.258;6.806;2024-02-28T03:38:19;89.80;;;36.55;;
4353;SDS011;11018;51.258;6.806;2024-02-28T03:40:45;86.38;;;34.63;;
4353;SDS011;11018;51.258;6.806;2024-02-28T03:43:10;91.38;;;35.10;;
4353;SDS011;11018;51.258;6.806;2024-02-28T03:45:37;91.03;;;35.95;;
4353;SDS011;11018;51.258;6.806;2024-02-28T03:48:04;93.53;;;37.25;;
4353;SDS011;11018;51.258;6.806;2024-02-28T03:50:30;88.45;;;35.17;;
4353;SDS011;11018;51.258;6.806;2024-02-28T03:52:55;87.53;;;36.17;;
4353;SDS011;11018;51.258;6.806;2024-02-28T03:55:21;89.13;;;37.00;;
4353;SDS011;11018;51.258;6.806;2024-02-28T03:57:47;92.47;;;35.10;;
4353;SDS011;11018;51.258;6.806;2024-02-28T04:00:13;93.97;;;37.40;;
4353;SDS011;11018;51.258;6.806;2024-02-28T04:02:39;92.10;;;36.70;;
4353;SDS011;11018;51.258;6.806;2024-02-28T04:05:05;101.00;;;39.40;;
4353;SDS011;11018;51.258;6.806;2024-02-28T04:07:30;94.75;;;38.47;;
4353;SDS011;11018;51.258;6.806;2024-02-28T04:09:56;96.63;;;39.63;;
4353;SDS011;11018;51.258;6.806;2024-02-28T04:12:21;99.10;;;38.73;;
4353;SDS011;11018;51.258;6.806;2024-02-28T04:14:47;100.00;;;40.50;;
4353;SDS011;11018;51.258;6.806;2024-02-28T04:17:12;96.70;;;40.57;;
4353;SDS011;11018;51.258;6.806;2024-02-28T04:19:38;95.17;;;38.33;;
4353;SDS011;11018;51.258;6.806;2024-02-28T04:22:04;128.45;;;46.95;;
4353;SDS011;11018;51.258;6.806;2024-02-28T04:24:30;139.65;;;53.65;;
4353;SDS011;11018;51.258;6.806;2024-02-28T04:26:56;163.88;;;56.65;;
4353;SDS011;11018;51.258;6.806;2024-02-28T04:29:23;165.55;;;56.83;;
4353;SDS011;11018;51.258;6.806;2024-02-28T04:31:48;170.38;;;57.97;;
4353;SDS011;11018;51.258;6.806;2024-02-28T04:34:14;149.13;;;55.30;;
4353;SDS011;11018;51.258;6.806;2024-02-28T04:36:40;151.35;;;54.40;;
4353;SDS011;11018;51.258;6.806;2024-02-28T04:39:05;145.82;;;55.30;;
4353;SDS011;11018;51.258;6.806;2024-02-28T04:41:32;147.10;;;54.22;;
4353;SDS011;11018;51.258;6.806;2024-02-28T04:43:58;141.13;;;52.60;;
4353;SDS011;11018;51.258;6.806;2024-02-28T04:46:24;145.25;;;54.97;;
4353;SDS011;11018;51.258;6.806;2024-02-28T04:48:50;154.07;;;53.77;;
4353;SDS011;11018;51.258;6.806;2024-02-28T04:51:16;158.90;;;56.10;;
4353;SDS011;11018;51.258;6.806;2024-02-28T04:53:44;167.40;;;59.75;;
4353;SDS011;11018;51.258;6.806;2024-02-28T04:56:10;169.80;;;58.10;;
4353;SDS011;11018;51.258;6.806;2024-02-28T04:58:38;177.53;;;63.00;;
4353;SDS011;11018;51.258;6.806;2024-02-28T05:01:04;174.30;;;59.77;;
4353;SDS011;11018;51.258;6.806;2024-02-28T05:03:30;170.83;;;61.30;;
4353;SDS011;11018;51.258;6.806;2024-02-28T05:05:55;163.97;;;59.60;;
4353;SDS011;11018;51.258;6.806;2024-02-28T05:08:21;165.20;;;59.30;;
4353;SDS011;11018;51.258;6.806;2024-02-28T05:10:46;169.87;;;59.10;;
4353;SDS011;11018;51.258;6.806;2024-02-28T05:13:12;160.73;;;57.67;;
4353;SDS011;11018;51.258;6.806;2024-02-28T05:15:38;168.85;;;58.50;;
4353;SDS011;11018;51.258;6.806;2024-02-28T05:18:03;170.55;;;58.30;;
4353;SDS011;11018;51.258;6.806;2024-02-28T05:20:29;156.60;;;55.67;;
4353;SDS011;11018;51.258;6.806;2024-02-28T05:22:55;146.87;;;53.57;;
4353;SDS011;11018;51.258;6.806;2024-02-28T05:25:20;141.50;;;50.17;;
4353;SDS011;11018;51.258;6.806;2024-02-28T05:27:46;136.70;;;49.67;;
4353;SDS011;11018;51.258;6.806;2024-02-28T05:30:11;136.37;;;49.50;;
4353;SDS011;11018;51.258;6.806;2024-02-28T05:32:37;118.37;;;44.40;;
4353;SDS011;11018;51.258;6.806;2024-02-28T05:35:03;121.10;;;43.50;;
4353;SDS011;11018;51.258;6.806;2024-02-28T05:37:28;124.65;;;45.85;;
4353;SDS011;11018;51.258;6.806;2024-02-28T05:39:54;134.23;;;47.47;;
4353;SDS011;11018;51.258;6.806;2024-02-28T05:42:19;132.83;;;47.77;;
4353;SDS011;11018;51.258;6.806;2024-02-28T05:44:49;134.88;;;48.85;;
4353;SDS011;11018;51.258;6.806;2024-02-28T05:47:15;144.23;;;49.72;;
4353;SDS011;11018;51.258;6.806;2024-02-28T05:49:41;149.52;;;49.63;;
4353;SDS011;11018;51.258;6.806;2024-02-28T05:52:06;161.23;;;52.47;;
4353;SDS011;11018;51.258;6.806;2024-02-28T05:54:32;149.10;;;52.30;;
4353;SDS011;11018;51.258;6.806;2024-02-28T05:56:59;149.65;;;51.55;;
4353;SDS011;11018;51.258;6.806;2024-02-28T05:59:25;162.70;;;55.08;;
4353;SDS011;11018;51.258;6.806;2024-02-28T06:01:51;149.60;;;53.33;;
4353;SDS011;11018;51.258;6.806;2024-02-28T06:04:16;155.45;;;52.83;;
4353;SDS011;11018;51.258;6.806;2024-02-28T06:06:42;153.25;;;52.95;;
4353;SDS011;11018;51.258;6.806;2024-02-28T06:09:08;165.23;;;55.13;;
4353;SDS011;11018;51.258;6.806;2024-02-28T06:11:33;157.38;;;53.03;;
4353;SDS011;11018;51.258;6.806;2024-02-28T06:13:59;158.57;;;55.42;;
4353;SDS011;11018;51.258;6.806;2024-02-28T06:16:24;155.48;;;54.05;;
4353;SDS011;11018;51.258;6.806;2024-02-28T06:18:50;155.07;;;54.53;;
4353;SDS011;11018;51.258;6.806;2024-02-28T06:21:16;161.00;;;55.83;;
4353;SDS011;11018;51.258;6.806;2024-02-28T06:23:41;157.48;;;56.30;;
4353;SDS011;11018;51.258;6.806;2024-02-28T06:26:07;152.90;;;54.10;;
4353;SDS011;11018;51.258;6.806;2024-02-28T06:28:39;151.93;;;53.55;;
4353;SDS011;11018;51.258;6.806;2024-02-28T06:31:11;155.82;;;54.50;;
4353;SDS011;11018;51.258;6.806;2024-02-28T06:33:38;148.10;;;52.90;;
4353;SDS011;11018;51.258;6.806;2024-02-28T06:36:03;140.13;;;51.20;;
4353;SDS011;11018;51.258;6.806;2024-02-28T06:38:29;149.27;;;51.88;;
4353;SDS011;11018;51.258;6.806;2024-02-28T06:40:55;137.90;;;48.85;;
4353;SDS011;11018;51.258;6.806;2024-02-28T06:43:20;137.50;;;49.03;;
4353;SDS011;11018;51.258;6.806;2024-02-28T06:45:46;133.07;;;48.83;;
4353;SDS011;11018;51.258;6.806;2024-02-28T06:48:12;128.70;;;49.20;;
4353;SDS011;11018;51.258;6.806;2024-02-28T06:50:37;131.68;;;48.75;;
4353;SDS011;11018;51.258;6.806;2024-02-28T06:53:03;127.47;;;47.63;;
4353;SDS011;11018;51.258;6.806;2024-02-28T06:55:28;128.32;;;46.65;;
4353;SDS011;11018;51.258;6.806;2024-02-28T06:57:54;130.20;;;47.63;;
4353;SDS011;11018;51.258;6.806;2024-02-28T07:00:21;133.05;;;48.20;;
4353;SDS011;11018;51.258;6.806;2024-02-28T07:02:47;141.03;;;49.97;;
4353;SDS011;11018;51.258;6.806;2024-02-28T07:05:13;133.87;;;47.50;;
4353;SDS011;11018;51.258;6.806;2024-02-28T07:07:38;120.80;;;45.03;;
4353;SDS011;11018;51.258;6.806;2024-02-28T07:10:04;118.43;;;43.43;;
4353;SDS011;11018;51.258;6.806;2024-02-28T07:12:30;119.78;;;44.78;;
4353;SDS011;11018;51.258;6.806;2024-02-28T07:14:56;119.18;;;43.78;;
4353;SDS011;11018;51.258;6.806;2024-02-28T07:17:22;123.50;;;44.00;;
4353;SDS011;11018;51.258;6.806;2024-02-28T07:19:47;130.30;;;45.73;;
4353;SDS011;11018;51.258;6.806;2024-02-28T07:22:13;130.93;;;46.63;;
4353;SDS011;11018;51.258;6.806;2024-02-28T07:24:39;138.52;;;45.75;;
4353;SDS011;11018;51.258;6.806;2024-02-28T07:27:04;132.95;;;46.58;;
4353;SDS011;11018;51.258;6.806;2024-02-28T07:29:30;132.40;;;45.35;;
4353;SDS011;11018;51.258;6.806;2024-02-28T07:31:55;132.05;;;44.55;;
4353;SDS011;11018;51.258;6.806;2024-02-28T07:34:21;133.35;;;45.00;;
4353;SDS011;11018;51.258;6.806;2024-02-28T07:36:47;136.57;;;44.60;;
4353;SDS011;11018;51.258;6.806;2024-02-28T07:39:13;130.83;;;44.73;;
4353;SDS011;11018;51.258;6.806;2024-02-28T07:41:38;119.60;;;42.40;;
4353;SDS011;11018;51.258;6.806;2024-02-28T07:44:05;126.60;;;43.50;;
4353;SDS011;11018;51.258;6.806;2024-02-28T07:46:32;122.35;;;42.75;;
4353;SDS011;11018;51.258;6.806;2024-02-28T07:48:57;125.05;;;43.13;;
4353;SDS011;11018;51.258;6.806;2024-02-28T07:51:23;124.93;;;42.13;;
4353;SDS011;11018;51.258;6.806;2024-02-28T07:53:48;126.40;;;45.30;;
4353;SDS011;11018;51.258;6.806;2024-02-28T07:56:17;132.53;;;43.23;;
4353;SDS011;11018;51.258;6.806;2024-02-28T07:58:44;116.53;;;42.58;;
4353;SDS011;11018;51.258;6.806;2024-02-28T08:01:12;120.38;;;43.33;;
4353;SDS011;11018;51.258;6.806;2024-02-28T08:03:37;126.30;;;45.05;;
4353;SDS011;11018;51.258;6.806;2024-02-28T08:06:03;126.50;;;42.55;;
4353;SDS011;11018;51.258;6.806;2024-02-28T08:08:29;119.55;;;43.30;;
4353;SDS011;11018;51.258;6.806;2024-02-28T08:10:55;124.87;;;42.60;;
4353;SDS011;11018;51.258;6.806;2024-02-28T08:13:20;122.07;;;43.90;;
4353;SDS011;11018;51.258;6.806;2024-02-28T08:15:46;113.10;;;42.03;;
4353;SDS011;11018;51.258;6.806;2024-02-28T08:18:11;128.50;;;41.93;;
4353;SDS011;11018;51.258;6.806;2024-02-28T08:20:37;128.10;;;44.50;;
4353;SDS011;11018;51.258;6.806;2024-02-28T08:23:04;114.30;;;42.58;;
4353;SDS011;11018;51.258;6.806;2024-02-28T08:25:30;116.25;;;41.78;;
4353;SDS011;11018;51.258;6.806;2024-02-28T08:27:55;127.47;;;42.80;;
4353;SDS011;11018;51.258;6.806;2024-02-28T08:30:21;125.73;;;44.87;;
4353;SDS011;11018;51.258;6.806;2024-02-28T08:32:47;114.43;;;41.77;;
4353;SDS011;11018;51.258;6.806;2024-02-28T08:35:13;126.30;;;44.90;;
4353;SDS011;11018;51.258;6.806;2024-02-28T08:37:38;124.70;;;43.07;;
4353;SDS011;11018;51.258;6.806;2024-02-28T08:40:04;121.30;;;43.20;;
4353;SDS011;11018;51.258;6.806;2024-02-28T08:42:31;131.88;;;44.72;;
4353;SDS011;11018;51.258;6.806;2024-02-28T08:44:57;127.63;;;44.37;;
4353;SDS011;11018;51.258;6.806;2024-02-28T08:47:25;126.43;;;42.95;;
4353;SDS011;11018;51.258;6.806;2024-02-28T08:49:51;126.53;;;43.35;;
4353;SDS011;11018;51.258;6.806;2024-02-28T08:52:20;123.47;;;42.90;;
4353;SDS011;11018;51.258;6.806;2024-02-28T08:54:47;123.55;;;42.90;;
4353;SDS011;11018;51.258;6.806;2024-02-28T08:57:13;123.80;;;44.33;;
4353;SDS011;11018;51.258;6.806;2024-02-28T08:59:39;125.28;;;45.03;;
4353;SDS011;11018;51.258;6.806;2024-02-28T09:02:06;117.43;;;44.58;;
4353;SDS011;11018;51.258;6.806;2024-02-28T09:04:32;126.68;;;44.75;;
4353;SDS011;11018;51.258;6.806;2024-02-28T09:06:58;118.68;;;43.40;;
4353;SDS011;11018;51.258;6.806;2024-02-28T09:09:24;128.20;;;45.20;;
4353;SDS011;11018;51.258;6.806;2024-02-28T09:11:49;127.07;;;45.00;;
4353;SDS011;11018;51.258;6.806;2024-02-28T09:14:15;128.17;;;42.27;;
4353;SDS011;11018;51.258;6.806;2024-02-28T09:16:40;124.10;;;42.90;;
4353;SDS011;11018;51.258;6.806;2024-02-28T09:19:06;110.83;;;40.00;;
4353;SDS011;11018;51.258;6.806;2024-02-28T09:21:32;107.87;;;39.77;;
4353;SDS011;11018;51.258;6.806;2024-02-28T09:23:57;109.47;;;41.27;;
4353;SDS011;11018;51.258;6.806;2024-02-28T09:26:23;110.77;;;42.00;;
4353;SDS011;11018;51.258;6.806;2024-02-28T09:28:48;109.35;;;41.80;;
4353;SDS011;11018;51.258;6.806;2024-02-28T09:31:14;110.60;;;40.28;;
4353;SDS011;11018;51.258;6.806;2024-02-28T09:33:42;106.78;;;40.78;;
4353;SDS011;11018;51.258;6.806;2024-02-28T09:36:08;119.17;;;42.30;;
4353;SDS011;11018;51.258;6.806;2024-02-28T09:38:33;107.17;;;41.67;;
4353;SDS011;11018;51.258;6.806;2024-02-28T09:41:00;105.25;;;41.05;;
4353;SDS011;11018;51.258;6.806;2024-02-28T09:43:30;105.20;;;40.77;;
4353;SDS011;11018;51.258;6.806;2024-02-28T09:45:58;106.60;;;42.30;;
4353;SDS011;11018;51.258;6.806;2024-02-28T09:48:28;98.25;;;40.10;;
4353;SDS011;11018;51.258;6.806;2024-02-28T09:50:54;100.65;;;38.85;;
4353;SDS011;11018;51.258;6.806;2024-02-28T09:53:21;96.38;;;38.95;;
4353;SDS011;11018;51.258;6.806;2024-02-28T09:55:47;103.87;;;40.73;;
4353;SDS011;11018;51.258;6.806;2024-02-28T09:58:14;96.07;;;38.85;;
4353;SDS011;11018;51.258;6.806;2024-02-28T10:00:41;111.35;;;44.30;;
4353;SDS011;11018;51.258;6.806;2024-02-28T10:03:09;100.28;;;41.47;;
4353;SDS011;11018;51.258;6.806;2024-02-28T10:05:36;112.60;;;43.85;;
4353;SDS011;11018;51.258;6.806;2024-02-28T10:08:04;101.05;;;39.47;;
4353;SDS011;11018;51.258;6.806;2024-02-28T10:10:30;95.22;;;39.67;;
4353;SDS011;11018;51.258;6.806;2024-02-28T10:12:56;95.65;;;39.90;;
4353;SDS011;11018;51.258;6.806;2024-02-28T10:15:23;113.32;;;43.40;;
4353;SDS011;11018;51.258;6.806;2024-02-28T10:17:51;109.80;;;44.25;;
4353;SDS011;11018;51.258;6.806;2024-02-28T10:20:17;108.10;;;43.40;;
4353;SDS011;11018;51.258;6.806;2024-02-28T10:22:42;105.00;;;42.55;;
4353;SDS011;11018;51.258;6.806;2024-02-28T10:25:08;99.25;;;40.90;;
4353;SDS011;11018;51.258;6.806;2024-02-28T10:27:34;102.53;;;40.78;;
4353;SDS011;11018;51.258;6.806;2024-02-28T10:30:00;97.18;;;41.78;;
4353;SDS011;11018;51.258;6.806;2024-02-28T10:32:30;92.40;;;40.70;;
4353;SDS011;11018;51.258;6.806;2024-02-28T10:34:58;98.10;;;40.95;;
4353;SDS011;11018;51.258;6.806;2024-02-28T10:37:25;93.43;;;40.53;;
4353;SDS011;11018;51.258;6.806;2024-02-28T10:39:53;90.22;;;40.75;;
4353;SDS011;11018;51.258;6.806;2024-02-28T10:42:21;79.63;;;34.58;;
4353;SDS011;11018;51.258;6.806;2024-02-28T10:44:48;89.15;;;40.00;;
4353;SDS011;11018;51.258;6.806;2024-02-28T10:47:17;79.20;;;36.38;;
4353;SDS011;11018;51.258;6.806;2024-02-28T10:49:43;73.07;;;35.10;;
4353;SDS011;11018;51.258;6.806;2024-02-28T10:52:09;75.60;;;34.67;;
4353;SDS011;11018;51.258;6.806;2024-02-28T10:54:38;72.70;;;33.85;;
4353;SDS011;11018;51.258;6.806;2024-02-28T10:57:09;75.00;;;33.70;;
4353;SDS011;11018;51.258;6.806;2024-02-28T10:59:37;80.65;;;36.08;;
4353;SDS011;11018;51.258;6.806;2024-02-28T11:02:04;70.10;;;33.13;;
4353;SDS011;11018;51.258;6.806;2024-02-28T11:04:31;70.40;;;32.65;;
4353;SDS011;11018;51.258;6.806;2024-02-28T11:06:56;71.27;;;34.23;;
4353;SDS011;11018;51.258;6.806;2024-02-28T11:09:23;69.93;;;33.47;;
4353;SDS011;11018;51.258;6.806;2024-02-28T11:11:55;76.67;;;35.50;;
4353;SDS011;11018;51.258;6.806;2024-02-28T11:14:21;83.95;;;35.47;;
4353;SDS011;11018;51.258;6.806;2024-02-28T11:16:59;91.33;;;36.30;;
4353;SDS011;11018;51.258;6.806;2024-02-28T11:19:27;80.82;;;34.70;;
4353;SDS011;11018;51.258;6.806;2024-02-28T11:21:54;75.32;;;35.17;;
4353;SDS011;11018;51.258;6.806;2024-02-28T11:24:30;76.03;;;34.25;;
4353;SDS011;11018;51.258;6.806;2024-02-28T11:26:58;75.40;;;33.50;;
4353;SDS011;11018;51.258;6.806;2024-02-28T11:29:24;83.00;;;35.63;;
4353;SDS011;11018;51.258;6.806;2024-02-28T11:31:54;85.95;;;36.38;;
4353;SDS011;11018;51.258;6.806;2024-02-28T11:34:20;79.63;;;35.00;;
4353;SDS011;11018;51.258;6.806;2024-02-28T11:36:49;84.13;;;36.55;;
4353;SDS011;11018;51.258;6.806;2024-02-28T11:39:16;85.53;;;37.47;;
4353;SDS011;11018;51.258;6.806;2024-02-28T11:41:42;76.60;;;35.30;;
4353;SDS011;11018;51.258;6.806;2024-02-28T11:44:11;80.68;;;36.58;;
4353;SDS011;11018;51.258;6.806;2024-02-28T11:46:38;82.00;;;37.42;;
4353;SDS011;11018;51.258;6.806;2024-02-28T11:49:07;77.18;;;35.50;;
4353;SDS011;11018;51.258;6.806;2024-02-28T11:51:33;78.23;;;34.33;;
4353;SDS011;11018;51.258;6.806;2024-02-28T11:54:00;75.70;;;33.47;;
4353;SDS011;11018;51.258;6.806;2024-02-28T11:56:26;79.80;;;34.17;;
4353;SDS011;11018;51.258;6.806;2024-02-28T11:58:52;73.43;;;33.13;;
4353;SDS011;11018;51.258;6.806;2024-02-28T12:01:19;72.50;;;32.90;;
4353;SDS011;11018;51.258;6.806;2024-02-28T12:03:57;76.85;;;33.67;;
4353;SDS011;11018;51.258;6.806;2024-02-28T12:06:23;76.53;;;34.70;;
4353;SDS011;11018;51.258;6.806;2024-02-28T12:08:48;70.63;;;32.08;;
4353;SDS011;11018;51.258;6.806;2024-02-28T12:11:15;76.63;;;32.63;;
4353;SDS011;11018;51.258;6.806;2024-02-28T12:13:40;80.10;;;34.75;;
4353;SDS011;11018;51.258;6.806;2024-02-28T12:16:07;80.07;;;35.27;;
4353;SDS011;11018;51.258;6.806;2024-02-28T12:18:33;63.95;;;29.48;;
4353;SDS011;11018;51.258;6.806;2024-02-28T12:21:00;65.72;;;29.45;;
4353;SDS011;11018;51.258;6.806;2024-02-28T12:23:25;57.83;;;27.20;;
4353;SDS011;11018;51.258;6.806;2024-02-28T12:25:51;63.40;;;29.60;;
4353;SDS011;11018;51.258;6.806;2024-02-28T12:28:16;64.77;;;30.50;;
4353;SDS011;11018;51.258;6.806;2024-02-28T12:30:42;57.50;;;26.40;;
4353;SDS011;11018;51.258;6.806;2024-02-28T12:33:08;54.50;;;25.85;;
4353;SDS011;11018;51.258;6.806;2024-02-28T12:35:36;57.55;;;26.25;;
4353;SDS011;11018;51.258;6.806;2024-02-28T12:38:02;64.30;;;29.08;;
4353;SDS011;11018;51.258;6.806;2024-02-28T12:40:27;61.40;;;27.00;;
4353;SDS011;11018;51.258;6.806;2024-02-28T12:42:53;60.35;;;27.83;;
4353;SDS011;11018;51.258;6.806;2024-02-28T12:45:18;59.60;;;27.10;;
4353;SDS011;11018;51.258;6.806;2024-02-28T12:47:44;56.83;;;26.07;;
4353;SDS011;11018;51.258;6.806;2024-02-28T12:50:10;55.43;;;24.93;;
4353;SDS011;11018;51.258;6.806;2024-02-28T12:52:36;59.72;;;25.85;;
4353;SDS011;11018;51.258;6.806;2024-02-28T12:55:02;52.83;;;25.52;;
4353;SDS011;11018;51.258;6.806;2024-02-28T12:57:28;52.53;;;24.98;;
4353;SDS011;11018;51.258;6.806;2024-02-28T12:59:53;55.53;;;26.65;;
4353;SDS011;11018;51.258;6.806;2024-02-28T13:02:20;52.40;;;24.52;;
4353;SDS011;11018;51.258;6.806;2024-02-28T13:04:47;57.03;;;26.60;;
4353;SDS011;11018;51.258;6.806;2024-02-28T13:07:12;54.83;;;26.10;;
4353;SDS011;11018;51.258;6.806;2024-02-28T13:09:38;51.00;;;24.10;;
4353;SDS011;11018;51.258;6.806;2024-02-28T13:12:03;49.13;;;23.27;;
4353;SDS011;11018;51.258;6.806;2024-02-28T13:14:30;52.45;;;24.25;;
4353;SDS011;11018;51.258;6.806;2024-02-28T13:16:55;54.53;;;25.73;;
4353;SDS011;11018;51.258;6.806;2024-02-28T13:19:23;53.88;;;26.67;;
4353;SDS011;11018;51.258;6.806;2024-02-28T13:21:48;58.70;;;26.23;;
4353;SDS011;11018;51.258;6.806;2024-02-28T13:24:14;55.90;;;25.67;;
4353;SDS011;11018;51.258;6.806;2024-02-28T13:26:41;52.50;;;24.58;;
4353;SDS011;11018;51.258;6.806;2024-02-28T13:29:07;52.55;;;25.88;;
4353;SDS011;11018;51.258;6.806;2024-02-28T13:31:32;52.60;;;23.63;;
4353;SDS011;11018;51.258;6.806;2024-02-28T13:33:59;53.20;;;23.13;;
4353;SDS011;11018;51.258;6.806;2024-02-28T13:36:25;56.78;;;25.83;;
4353;SDS011;11018;51.258;6.806;2024-02-28T13:38:51;49.67;;;23.88;;
4353;SDS011;11018;51.258;6.806;2024-02-28T13:41:16;51.80;;;24.15;;
4353;SDS011;11018;51.258;6.806;2024-02-28T13:43:42;60.77;;;24.60;;
4353;SDS011;11018;51.258;6.806;2024-02-28T13:46:08;48.90;;;23.97;;
4353;SDS011;11018;51.258;6.806;2024-02-28T13:48:35;49.63;;;23.95;;
4353;SDS011;11018;51.258;6.806;2024-02-28T13:51:00;52.97;;;23.87;;
4353;SDS011;11018;51.258;6.806;2024-02-28T13:53:29;51.83;;;23.90;;
4353;SDS011;11018;51.258;6.806;2024-02-28T13:55:54;51.75;;;24.65;;
4353;SDS011;11018;51.258;6.806;2024-02-28T13:58:20;52.00;;;25.20;;
4353;SDS011;11018;51.258;6.806;2024-02-28T14:00:46;49.67;;;24.57;;
4353;SDS011;11018;51.258;6.806;2024-02-28T14:03:12;50.40;;;24.17;;
4353;SDS011;11018;51.258;6.806;2024-02-28T14:05:38;52.88;;;25.42;;
4353;SDS011;11018;51.258;6.806;2024-02-28T14:08:03;47.85;;;23.73;;
4353;SDS011;11018;51.258;6.806;2024-02-28T14:10:32;45.25;;;22.60;;
4353;SDS011;11018;51.258;6.806;2024-02-28T14:12:58;47.60;;;22.20;;
4353;SDS011;11018;51.258;6.806;2024-02-28T14:15:24;47.13;;;22.90;;
4353;SDS011;11018;51.258;6.806;2024-02-28T14:17:50;44.70;;;22.25;;
4353;SDS011;11018;51.258;6.806;2024-02-28T14:20:16;45.13;;;21.35;;
4353;SDS011;11018;51.258;6.806;2024-02-28T14:22:42;43.80;;;21.97;;
4353;SDS011;11018;51.258;6.806;2024-02-28T14:27:37;56.08;;;24.75;;